sensor_id;sensor_type;location;lat;lon;timestamp;temperature;humidity
25280;DHT22;13225;47.804;12.116;2023-04-07T00:01:22;0.50;99.90
25280;DHT22;13225;47.804;12.116;2023-04-07T00:03:48;0.40;99.90
25280;DHT22;13225;47.804;12.116;2023-04-07T00:06:13;0.20;99.90
25280;DHT22;13225;47.804;12.116;2023-04-07T00:08:39;0.10;99.90
25280;DHT22;13225;47.804;12.116;2023-04-07T00:11:05;0.10;99.90
25280;DHT22;13225;47.804;12.116;2023-04-07T00:13:30;0.20;99.90
25280;DHT22;13225;47.804;12.116;2023-04-07T00:15:56;0.40;99.90
25280;DHT22;13225;47.804;12.116;2023-04-07T00:18:21;0.50;99.90
25280;DHT22;13225;47.804;12.116;2023-04-07T00:20:47;0.60;99.90
25280;DHT22;13225;47.804;12.116;2023-04-07T00:23:13;0.50;99.90
25280;DHT22;13225;47.804;12.116;2023-04-07T00:25:38;0.60;99.90
25280;DHT22;13225;47.804;12.116;2023-04-07T00:28:04;0.50;99.90
25280;DHT22;13225;47.804;12.116;2023-04-07T00:30:30;0.70;99.90
25280;DHT22;13225;47.804;12.116;2023-04-07T00:32:55;0.60;99.90
25280;DHT22;13225;47.804;12.116;2023-04-07T00:35:21;0.50;99.90
25280;DHT22;13225;47.804;12.116;2023-04-07T00:37:47;0.40;99.90
25280;DHT22;13225;47.804;12.116;2023-04-07T00:40:12;0.40;99.90
25280;DHT22;13225;47.804;12.116;2023-04-07T00:42:38;0.50;99.90
25280;DHT22;13225;47.804;12.116;2023-04-07T00:45:04;0.60;99.90
25280;DHT22;13225;47.804;12.116;2023-04-07T00:47:30;0.60;99.90
25280;DHT22;13225;47.804;12.116;2023-04-07T00:49:56;0.70;99.90
25280;DHT22;13225;47.804;12.116;2023-04-07T00:52:21;0.70;99.90
25280;DHT22;13225;47.804;12.116;2023-04-07T00:54:53;0.90;99.90
25280;DHT22;13225;47.804;12.116;2023-04-07T00:57:20;1.00;99.90
25280;DHT22;13225;47.804;12.116;2023-04-07T00:59:48;1.10;99.90
25280;DHT22;13225;47.804;12.116;2023-04-07T01:02:23;1.20;99.90
25280;DHT22;13225;47.804;12.116;2023-04-07T01:05:00;1.20;99.90
25280;DHT22;13225;47.804;12.116;2023-04-07T01:07:33;1.30;99.90
25280;DHT22;13225;47.804;12.116;2023-04-07T01:10:15;1.30;99.90
25280;DHT22;13225;47.804;12.116;2023-04-07T01:15:20;1.30;99.90
25280;DHT22;13225;47.804;12.116;2023-04-07T01:17:59;1.30;99.90
25280;DHT22;13225;47.804;12.116;2023-04-07T01:20:26;1.20;99.90
25280;DHT22;13225;47.804;12.116;2023-04-07T01:22:56;1.10;99.90
25280;DHT22;13225;47.804;12.116;2023-04-07T01:25:53;1.00;99.90
25280;DHT22;13225;47.804;12.116;2023-04-07T01:31:03;1.00;99.90
25280;DHT22;13225;47.804;12.116;2023-04-07T01:33:31;1.10;99.90
25280;DHT22;13225;47.804;12.116;2023-04-07T01:35:59;1.10;99.90
25280;DHT22;13225;47.804;12.116;2023-04-07T01:38:27;1.10;99.90
25280;DHT22;13225;47.804;12.116;2023-04-07T01:40:54;1.10;99.90
25280;DHT22;13225;47.804;12.116;2023-04-07T01:43:22;1.00;99.90
25280;DHT22;13225;47.804;12.116;2023-04-07T01:45:48;1.10;99.90
25280;DHT22;13225;47.804;12.116;2023-04-07T01:48:15;1.10;99.90
25280;DHT22;13225;47.804;12.116;2023-04-07T01:50:42;1.00;99.90
25280;DHT22;13225;47.804;12.116;2023-04-07T01:53:08;1.00;99.90
25280;DHT22;13225;47.804;12.116;2023-04-07T01:55:35;1.10;99.90
25280;DHT22;13225;47.804;12.116;2023-04-07T01:58:05;1.20;99.90
25280;DHT22;13225;47.804;12.116;2023-04-07T02:00:31;1.20;99.90
25280;DHT22;13225;47.804;12.116;2023-04-07T02:03:27;1.30;99.90
25280;DHT22;13225;47.804;12.116;2023-04-07T02:05:50;1.40;99.90
25280;DHT22;13225;47.804;12.116;2023-04-07T02:08:17;1.40;99.90
25280;DHT22;13225;47.804;12.116;2023-04-07T02:10:46;1.30;99.90
25280;DHT22;13225;47.804;12.116;2023-04-07T02:13:15;1.40;99.90
25280;DHT22;13225;47.804;12.116;2023-04-07T02:15:43;1.30;99.90
25280;DHT22;13225;47.804;12.116;2023-04-07T02:18:12;1.30;99.90
25280;DHT22;13225;47.804;12.116;2023-04-07T02:20:40;1.40;99.90
25280;DHT22;13225;47.804;12.116;2023-04-07T02:23:07;1.40;99.90
25280;DHT22;13225;47.804;12.116;2023-04-07T02:25:33;1.30;99.90
25280;DHT22;13225;47.804;12.116;2023-04-07T02:27:59;1.30;99.90
25280;DHT22;13225;47.804;12.116;2023-04-07T02:30:26;1.20;99.90
25280;DHT22;13225;47.804;12.116;2023-04-07T02:32:52;1.10;99.90
25280;DHT22;13225;47.804;12.116;2023-04-07T02:35:18;1.10;99.90
25280;DHT22;13225;47.804;12.116;2023-04-07T02:37:45;1.00;99.90
25280;DHT22;13225;47.804;12.116;2023-04-07T02:40:11;1.00;99.90
25280;DHT22;13225;47.804;12.116;2023-04-07T02:42:37;0.90;99.90
25280;DHT22;13225;47.804;12.116;2023-04-07T02:45:03;0.90;99.90
25280;DHT22;13225;47.804;12.116;2023-04-07T02:47:29;0.90;99.90
25280;DHT22;13225;47.804;12.116;2023-04-07T02:49:55;0.90;99.90
25280;DHT22;13225;47.804;12.116;2023-04-07T02:52:20;0.80;99.90
25280;DHT22;13225;47.804;12.116;2023-04-07T02:54:46;0.70;99.90
25280;DHT22;13225;47.804;12.116;2023-04-07T02:57:12;0.70;99.90
25280;DHT22;13225;47.804;12.116;2023-04-07T02:59:38;0.70;99.90
25280;DHT22;13225;47.804;12.116;2023-04-07T03:02:05;0.60;99.90
25280;DHT22;13225;47.804;12.116;2023-04-07T03:04:31;0.70;99.90
25280;DHT22;13225;47.804;12.116;2023-04-07T03:06:57;0.90;99.90
25280;DHT22;13225;47.804;12.116;2023-04-07T03:09:22;1.00;99.90
25280;DHT22;13225;47.804;12.116;2023-04-07T03:11:48;1.10;99.90
25280;DHT22;13225;47.804;12.116;2023-04-07T03:14:14;1.10;99.90
25280;DHT22;13225;47.804;12.116;2023-04-07T03:16:41;1.10;99.90
25280;DHT22;13225;47.804;12.116;2023-04-07T03:19:06;1.10;99.90
25280;DHT22;13225;47.804;12.116;2023-04-07T03:21:33;1.10;99.90
25280;DHT22;13225;47.804;12.116;2023-04-07T03:23:58;1.10;99.90
25280;DHT22;13225;47.804;12.116;2023-04-07T03:26:24;1.20;99.90
25280;DHT22;13225;47.804;12.116;2023-04-07T03:28:50;1.30;99.90
25280;DHT22;13225;47.804;12.116;2023-04-07T03:31:15;1.20;99.90
25280;DHT22;13225;47.804;12.116;2023-04-07T03:33:41;1.20;99.90
25280;DHT22;13225;47.804;12.116;2023-04-07T03:36:06;1.20;99.90
25280;DHT22;13225;47.804;12.116;2023-04-07T03:38:32;1.30;99.90
25280;DHT22;13225;47.804;12.116;2023-04-07T03:40:58;1.30;99.90
25280;DHT22;13225;47.804;12.116;2023-04-07T03:43:23;1.40;99.90
25280;DHT22;13225;47.804;12.116;2023-04-07T03:45:51;1.50;99.90
25280;DHT22;13225;47.804;12.116;2023-04-07T03:48:17;1.50;99.90
25280;DHT22;13225;47.804;12.116;2023-04-07T03:50:42;1.70;99.90
25280;DHT22;13225;47.804;12.116;2023-04-07T03:53:08;1.80;99.90
25280;DHT22;13225;47.804;12.116;2023-04-07T03:55:35;1.90;99.90
25280;DHT22;13225;47.804;12.116;2023-04-07T03:58:01;1.90;99.90
25280;DHT22;13225;47.804;12.116;2023-04-07T04:00:27;1.90;99.90
25280;DHT22;13225;47.804;12.116;2023-04-07T04:02:52;1.90;99.90
25280;DHT22;13225;47.804;12.116;2023-04-07T04:05:18;2.00;99.90
25280;DHT22;13225;47.804;12.116;2023-04-07T04:07:44;2.10;99.90
25280;DHT22;13225;47.804;12.116;2023-04-07T04:10:09;2.10;99.90
25280;DHT22;13225;47.804;12.116;2023-04-07T04:12:35;2.20;99.90
25280;DHT22;13225;47.804;12.116;2023-04-07T04:15:01;2.20;99.90
25280;DHT22;13225;47.804;12.116;2023-04-07T04:17:27;2.20;99.90
25280;DHT22;13225;47.804;12.116;2023-04-07T04:19:52;2.30;99.90
25280;DHT22;13225;47.804;12.116;2023-04-07T04:22:19;2.30;99.90
25280;DHT22;13225;47.804;12.116;2023-04-07T04:24:44;2.30;99.90
25280;DHT22;13225;47.804;12.116;2023-04-07T04:27:10;2.20;99.90
25280;DHT22;13225;47.804;12.116;2023-04-07T04:29:35;2.20;99.90
25280;DHT22;13225;47.804;12.116;2023-04-07T04:32:01;2.20;99.90
25280;DHT22;13225;47.804;12.116;2023-04-07T04:34:26;2.20;99.90
25280;DHT22;13225;47.804;12.116;2023-04-07T04:36:52;2.30;99.90
25280;DHT22;13225;47.804;12.116;2023-04-07T04:39:18;2.30;99.90
25280;DHT22;13225;47.804;12.116;2023-04-07T04:41:44;2.40;99.90
25280;DHT22;13225;47.804;12.116;2023-04-07T04:44:10;2.30;99.90
25280;DHT22;13225;47.804;12.116;2023-04-07T04:46:36;2.30;99.90
25280;DHT22;13225;47.804;12.116;2023-04-07T04:49:02;2.40;99.90
25280;DHT22;13225;47.804;12.116;2023-04-07T04:51:27;2.40;99.90
25280;DHT22;13225;47.804;12.116;2023-04-07T04:53:53;2.40;99.90
25280;DHT22;13225;47.804;12.116;2023-04-07T04:56:19;2.50;99.90
25280;DHT22;13225;47.804;12.116;2023-04-07T04:58:45;2.50;99.90
25280;DHT22;13225;47.804;12.116;2023-04-07T05:01:12;2.70;99.90
25280;DHT22;13225;47.804;12.116;2023-04-07T05:03:37;2.70;99.90
25280;DHT22;13225;47.804;12.116;2023-04-07T05:06:03;2.70;99.90
25280;DHT22;13225;47.804;12.116;2023-04-07T05:08:29;2.70;99.90
25280;DHT22;13225;47.804;12.116;2023-04-07T05:10:55;2.70;99.90
25280;DHT22;13225;47.804;12.116;2023-04-07T05:13:20;2.70;99.90
25280;DHT22;13225;47.804;12.116;2023-04-07T05:15:46;2.70;99.90
25280;DHT22;13225;47.804;12.116;2023-04-07T05:18:12;2.80;99.90
25280;DHT22;13225;47.804;12.116;2023-04-07T05:20:37;2.90;99.90
25280;DHT22;13225;47.804;12.116;2023-04-07T05:23:03;3.00;99.90
25280;DHT22;13225;47.804;12.116;2023-04-07T05:25:29;3.10;99.90
25280;DHT22;13225;47.804;12.116;2023-04-07T05:27:56;3.20;99.90
25280;DHT22;13225;47.804;12.116;2023-04-07T05:30:22;3.20;99.90
25280;DHT22;13225;47.804;12.116;2023-04-07T05:32:47;3.30;99.90
25280;DHT22;13225;47.804;12.116;2023-04-07T05:35:13;3.40;99.90
25280;DHT22;13225;47.804;12.116;2023-04-07T05:37:39;3.40;99.90
25280;DHT22;13225;47.804;12.116;2023-04-07T05:40:05;3.40;99.90
25280;DHT22;13225;47.804;12.116;2023-04-07T05:42:31;3.50;99.90
25280;DHT22;13225;47.804;12.116;2023-04-07T05:44:56;3.50;99.90
25280;DHT22;13225;47.804;12.116;2023-04-07T05:47:22;3.50;99.90
25280;DHT22;13225;47.804;12.116;2023-04-07T05:49:47;3.50;99.90
25280;DHT22;13225;47.804;12.116;2023-04-07T05:52:13;3.60;99.90
25280;DHT22;13225;47.804;12.116;2023-04-07T05:54:39;3.60;99.90
25280;DHT22;13225;47.804;12.116;2023-04-07T05:57:08;3.70;99.90
25280;DHT22;13225;47.804;12.116;2023-04-07T05:59:34;3.60;99.90
25280;DHT22;13225;47.804;12.116;2023-04-07T06:02:01;3.60;99.90
25280;DHT22;13225;47.804;12.116;2023-04-07T06:04:27;3.70;99.90
25280;DHT22;13225;47.804;12.116;2023-04-07T06:06:52;3.70;99.90
25280;DHT22;13225;47.804;12.116;2023-04-07T06:09:20;3.70;99.90
25280;DHT22;13225;47.804;12.116;2023-04-07T06:11:46;3.70;99.90
25280;DHT22;13225;47.804;12.116;2023-04-07T06:14:12;3.70;99.90
25280;DHT22;13225;47.804;12.116;2023-04-07T06:16:37;3.70;99.90
25280;DHT22;13225;47.804;12.116;2023-04-07T06:19:03;3.70;99.90
25280;DHT22;13225;47.804;12.116;2023-04-07T06:21:28;3.80;99.90
25280;DHT22;13225;47.804;12.116;2023-04-07T06:23:55;3.80;99.90
25280;DHT22;13225;47.804;12.116;2023-04-07T06:26:20;3.90;99.90
25280;DHT22;13225;47.804;12.116;2023-04-07T06:28:46;3.90;99.90
25280;DHT22;13225;47.804;12.116;2023-04-07T06:31:11;3.90;99.90
25280;DHT22;13225;47.804;12.116;2023-04-07T06:33:37;3.90;99.90
25280;DHT22;13225;47.804;12.116;2023-04-07T06:36:03;4.00;99.90
25280;DHT22;13225;47.804;12.116;2023-04-07T06:38:28;4.00;99.90
25280;DHT22;13225;47.804;12.116;2023-04-07T06:40:54;4.10;99.90
25280;DHT22;13225;47.804;12.116;2023-04-07T06:43:20;4.10;99.90
25280;DHT22;13225;47.804;12.116;2023-04-07T06:45:45;4.00;99.90
25280;DHT22;13225;47.804;12.116;2023-04-07T06:48:11;4.00;99.90
25280;DHT22;13225;47.804;12.116;2023-04-07T06:50:36;4.10;99.90
25280;DHT22;13225;47.804;12.116;2023-04-07T06:53:03;4.00;99.90
25280;DHT22;13225;47.804;12.116;2023-04-07T06:55:29;4.10;99.90
25280;DHT22;13225;47.804;12.116;2023-04-07T06:57:54;4.10;99.90
25280;DHT22;13225;47.804;12.116;2023-04-07T07:00:20;4.10;99.90
25280;DHT22;13225;47.804;12.116;2023-04-07T07:02:48;4.10;99.90
25280;DHT22;13225;47.804;12.116;2023-04-07T07:05:13;4.10;99.90
25280;DHT22;13225;47.804;12.116;2023-04-07T07:07:39;4.10;99.90
25280;DHT22;13225;47.804;12.116;2023-04-07T07:10:07;4.10;99.90
25280;DHT22;13225;47.804;12.116;2023-04-07T07:12:33;4.20;99.90
25280;DHT22;13225;47.804;12.116;2023-04-07T07:14:58;4.30;99.90
25280;DHT22;13225;47.804;12.116;2023-04-07T07:17:24;4.30;99.90
25280;DHT22;13225;47.804;12.116;2023-04-07T07:19:49;4.40;99.90
25280;DHT22;13225;47.804;12.116;2023-04-07T07:22:15;4.50;99.90
25280;DHT22;13225;47.804;12.116;2023-04-07T07:24:41;4.60;99.90
25280;DHT22;13225;47.804;12.116;2023-04-07T07:27:06;4.70;99.90
25280;DHT22;13225;47.804;12.116;2023-04-07T07:29:32;4.90;99.90
25280;DHT22;13225;47.804;12.116;2023-04-07T07:31:57;5.10;99.90
25280;DHT22;13225;47.804;12.116;2023-04-07T07:34:23;5.30;99.90
25280;DHT22;13225;47.804;12.116;2023-04-07T07:36:48;5.40;99.90
25280;DHT22;13225;47.804;12.116;2023-04-07T07:39:14;5.60;99.90
25280;DHT22;13225;47.804;12.116;2023-04-07T07:41:40;5.90;99.90
25280;DHT22;13225;47.804;12.116;2023-04-07T07:44:06;6.20;99.90
25280;DHT22;13225;47.804;12.116;2023-04-07T07:46:31;6.40;99.90
25280;DHT22;13225;47.804;12.116;2023-04-07T07:48:57;6.50;99.90
25280;DHT22;13225;47.804;12.116;2023-04-07T07:51:22;6.50;99.90
25280;DHT22;13225;47.804;12.116;2023-04-07T07:53:48;6.70;99.90
25280;DHT22;13225;47.804;12.116;2023-04-07T07:56:14;6.70;99.90
25280;DHT22;13225;47.804;12.116;2023-04-07T07:58:39;6.60;99.90
25280;DHT22;13225;47.804;12.116;2023-04-07T08:01:05;6.80;99.90
25280;DHT22;13225;47.804;12.116;2023-04-07T08:03:31;6.80;99.90
25280;DHT22;13225;47.804;12.116;2023-04-07T08:05:57;6.70;99.90
25280;DHT22;13225;47.804;12.116;2023-04-07T08:08:22;6.60;99.90
25280;DHT22;13225;47.804;12.116;2023-04-07T08:10:48;6.70;99.90
25280;DHT22;13225;47.804;12.116;2023-04-07T08:13:13;6.70;99.90
25280;DHT22;13225;47.804;12.116;2023-04-07T08:15:39;6.70;99.90
25280;DHT22;13225;47.804;12.116;2023-04-07T08:18:05;6.70;99.90
25280;DHT22;13225;47.804;12.116;2023-04-07T08:20:32;6.80;99.90
25280;DHT22;13225;47.804;12.116;2023-04-07T08:22:58;6.70;99.90
25280;DHT22;13225;47.804;12.116;2023-04-07T08:25:26;6.60;99.90
25280;DHT22;13225;47.804;12.116;2023-04-07T08:27:52;6.70;99.90
25280;DHT22;13225;47.804;12.116;2023-04-07T08:30:18;6.70;99.90
25280;DHT22;13225;47.804;12.116;2023-04-07T08:32:45;6.80;99.90
25280;DHT22;13225;47.804;12.116;2023-04-07T08:35:11;6.80;99.90
25280;DHT22;13225;47.804;12.116;2023-04-07T08:37:37;6.90;99.90
25280;DHT22;13225;47.804;12.116;2023-04-07T08:40:03;7.10;99.90
25280;DHT22;13225;47.804;12.116;2023-04-07T08:42:32;7.10;99.90
25280;DHT22;13225;47.804;12.116;2023-04-07T08:45:03;7.30;99.90
25280;DHT22;13225;47.804;12.116;2023-04-07T08:47:33;7.50;99.90
25280;DHT22;13225;47.804;12.116;2023-04-07T08:50:05;7.60;99.90
25280;DHT22;13225;47.804;12.116;2023-04-07T08:52:44;7.70;99.90
25280;DHT22;13225;47.804;12.116;2023-04-07T08:55:11;8.00;99.90
25280;DHT22;13225;47.804;12.116;2023-04-07T08:57:37;8.00;99.90
25280;DHT22;13225;47.804;12.116;2023-04-07T09:00:04;8.00;99.90
25280;DHT22;13225;47.804;12.116;2023-04-07T09:02:38;8.30;99.90
25280;DHT22;13225;47.804;12.116;2023-04-07T09:05:06;8.40;99.90
25280;DHT22;13225;47.804;12.116;2023-04-07T09:07:33;8.60;99.90
25280;DHT22;13225;47.804;12.116;2023-04-07T09:09:59;9.00;99.90
25280;DHT22;13225;47.804;12.116;2023-04-07T09:12:27;9.50;99.90
25280;DHT22;13225;47.804;12.116;2023-04-07T09:14:53;9.50;99.90
25280;DHT22;13225;47.804;12.116;2023-04-07T09:17:19;10.10;99.90
25280;DHT22;13225;47.804;12.116;2023-04-07T09:19:46;10.20;99.90
25280;DHT22;13225;47.804;12.116;2023-04-07T09:22:12;10.70;99.90
25280;DHT22;13225;47.804;12.116;2023-04-07T09:24:39;10.80;99.90
25280;DHT22;13225;47.804;12.116;2023-04-07T09:27:15;10.70;99.90
25280;DHT22;13225;47.804;12.116;2023-04-07T09:29:43;10.50;99.90
25280;DHT22;13225;47.804;12.116;2023-04-07T09:32:09;10.70;99.90
25280;DHT22;13225;47.804;12.116;2023-04-07T09:34:38;10.90;99.90
25280;DHT22;13225;47.804;12.116;2023-04-07T09:37:06;10.60;99.90
25280;DHT22;13225;47.804;12.116;2023-04-07T09:39:32;10.40;99.90
25280;DHT22;13225;47.804;12.116;2023-04-07T09:41:58;10.50;99.90
25280;DHT22;13225;47.804;12.116;2023-04-07T09:44:38;10.80;99.90
25280;DHT22;13225;47.804;12.116;2023-04-07T09:47:05;10.90;99.90
25280;DHT22;13225;47.804;12.116;2023-04-07T09:49:31;10.20;99.90
25280;DHT22;13225;47.804;12.116;2023-04-07T09:52:02;10.30;99.90
25280;DHT22;13225;47.804;12.116;2023-04-07T09:54:33;10.30;99.90
25280;DHT22;13225;47.804;12.116;2023-04-07T09:57:01;10.10;99.90
25280;DHT22;13225;47.804;12.116;2023-04-07T09:59:28;10.20;99.90
25280;DHT22;13225;47.804;12.116;2023-04-07T10:01:54;10.30;99.90
25280;DHT22;13225;47.804;12.116;2023-04-07T10:04:20;10.60;99.90
25280;DHT22;13225;47.804;12.116;2023-04-07T10:06:47;10.60;99.90
25280;DHT22;13225;47.804;12.116;2023-04-07T10:09:13;11.10;99.90
25280;DHT22;13225;47.804;12.116;2023-04-07T10:11:42;10.80;99.90
25280;DHT22;13225;47.804;12.116;2023-04-07T10:14:11;10.70;99.90
25280;DHT22;13225;47.804;12.116;2023-04-07T10:16:37;10.90;99.90
25280;DHT22;13225;47.804;12.116;2023-04-07T10:19:04;11.20;99.90
25280;DHT22;13225;47.804;12.116;2023-04-07T10:21:33;11.50;99.90
25280;DHT22;13225;47.804;12.116;2023-04-07T10:27:08;11.80;99.90
25280;DHT22;13225;47.804;12.116;2023-04-07T10:29:42;11.90;99.90
25280;DHT22;13225;47.804;12.116;2023-04-07T10:32:09;11.80;99.90
25280;DHT22;13225;47.804;12.116;2023-04-07T10:37:19;11.70;99.90
25280;DHT22;13225;47.804;12.116;2023-04-07T10:39:51;11.50;99.90
25280;DHT22;13225;47.804;12.116;2023-04-07T10:45:06;11.70;99.90
25280;DHT22;13225;47.804;12.116;2023-04-07T10:47:33;11.70;99.90
25280;DHT22;13225;47.804;12.116;2023-04-07T10:50:21;11.80;99.90
25280;DHT22;13225;47.804;12.116;2023-04-07T10:53:04;11.80;99.90
25280;DHT22;13225;47.804;12.116;2023-04-07T10:55:42;12.10;99.90
25280;DHT22;13225;47.804;12.116;2023-04-07T10:58:22;12.80;99.90
25280;DHT22;13225;47.804;12.116;2023-04-07T11:03:30;12.40;99.90
25280;DHT22;13225;47.804;12.116;2023-04-07T11:06:08;12.50;99.90
25280;DHT22;13225;47.804;12.116;2023-04-07T11:08:45;12.60;99.90
25280;DHT22;13225;47.804;12.116;2023-04-07T11:11:13;12.50;99.90
25280;DHT22;13225;47.804;12.116;2023-04-07T11:13:43;12.30;99.90
25280;DHT22;13225;47.804;12.116;2023-04-07T11:16:11;12.30;99.90
25280;DHT22;13225;47.804;12.116;2023-04-07T11:18:37;12.30;99.90
25280;DHT22;13225;47.804;12.116;2023-04-07T11:21:04;12.40;99.90
25280;DHT22;13225;47.804;12.116;2023-04-07T11:23:43;12.50;99.90
25280;DHT22;13225;47.804;12.116;2023-04-07T11:26:11;12.80;99.90
25280;DHT22;13225;47.804;12.116;2023-04-07T11:28:47;12.80;99.90
25280;DHT22;13225;47.804;12.116;2023-04-07T11:31:29;13.00;99.90
25280;DHT22;13225;47.804;12.116;2023-04-07T11:33:57;13.00;99.90
25280;DHT22;13225;47.804;12.116;2023-04-07T11:36:37;13.10;99.90
25280;DHT22;13225;47.804;12.116;2023-04-07T11:39:04;13.10;99.90
25280;DHT22;13225;47.804;12.116;2023-04-07T11:41:31;13.20;99.90
25280;DHT22;13225;47.804;12.116;2023-04-07T11:44:08;13.30;99.90
25280;DHT22;13225;47.804;12.116;2023-04-07T11:46:35;13.10;99.90
25280;DHT22;13225;47.804;12.116;2023-04-07T11:49:27;12.90;99.90
25280;DHT22;13225;47.804;12.116;2023-04-07T11:52:01;12.50;99.90
25280;DHT22;13225;47.804;12.116;2023-04-07T11:54:39;12.80;99.90
25280;DHT22;13225;47.804;12.116;2023-04-07T11:57:05;13.20;99.90
25280;DHT22;13225;47.804;12.116;2023-04-07T11:59:30;13.20;99.90
25280;DHT22;13225;47.804;12.116;2023-04-07T12:01:57;13.30;99.70
25280;DHT22;13225;47.804;12.116;2023-04-07T12:04:22;13.60;99.80
25280;DHT22;13225;47.804;12.116;2023-04-07T12:06:48;13.90;98.20
25280;DHT22;13225;47.804;12.116;2023-04-07T12:09:31;14.30;99.90
25280;DHT22;13225;47.804;12.116;2023-04-07T12:11:59;14.70;98.30
25280;DHT22;13225;47.804;12.116;2023-04-07T12:14:25;15.80;96.50
25280;DHT22;13225;47.804;12.116;2023-04-07T12:16:54;16.30;94.90
25280;DHT22;13225;47.804;12.116;2023-04-07T12:19:26;16.50;93.20
25280;DHT22;13225;47.804;12.116;2023-04-07T12:21:53;16.50;93.00
25280;DHT22;13225;47.804;12.116;2023-04-07T12:24:19;16.60;91.80
25280;DHT22;13225;47.804;12.116;2023-04-07T12:26:44;16.50;91.50
25280;DHT22;13225;47.804;12.116;2023-04-07T12:29:10;16.50;92.00
25280;DHT22;13225;47.804;12.116;2023-04-07T12:31:36;16.70;90.30
25280;DHT22;13225;47.804;12.116;2023-04-07T12:34:02;16.70;90.50
25280;DHT22;13225;47.804;12.116;2023-04-07T12:36:27;16.90;89.10
25280;DHT22;13225;47.804;12.116;2023-04-07T12:38:54;16.20;88.10
25280;DHT22;13225;47.804;12.116;2023-04-07T12:41:20;16.50;90.00
25280;DHT22;13225;47.804;12.116;2023-04-07T12:43:46;16.80;89.40
25280;DHT22;13225;47.804;12.116;2023-04-07T12:46:11;17.50;87.00
25280;DHT22;13225;47.804;12.116;2023-04-07T12:48:37;17.40;87.50
25280;DHT22;13225;47.804;12.116;2023-04-07T12:51:03;17.70;84.60
25280;DHT22;13225;47.804;12.116;2023-04-07T12:53:29;17.40;83.20
25280;DHT22;13225;47.804;12.116;2023-04-07T12:55:57;16.40;86.90
25280;DHT22;13225;47.804;12.116;2023-04-07T12:58:23;15.60;89.30
25280;DHT22;13225;47.804;12.116;2023-04-07T13:00:50;14.80;90.50
25280;DHT22;13225;47.804;12.116;2023-04-07T13:03:16;15.40;90.80
25280;DHT22;13225;47.804;12.116;2023-04-07T13:05:42;16.70;86.30
25280;DHT22;13225;47.804;12.116;2023-04-07T13:08:08;17.20;84.80
25280;DHT22;13225;47.804;12.116;2023-04-07T13:10:34;17.50;83.30
25280;DHT22;13225;47.804;12.116;2023-04-07T13:13:00;17.60;86.30
25280;DHT22;13225;47.804;12.116;2023-04-07T13:15:28;17.80;82.90
25280;DHT22;13225;47.804;12.116;2023-04-07T13:17:54;18.50;81.30
25280;DHT22;13225;47.804;12.116;2023-04-07T13:20:22;18.50;80.10
25280;DHT22;13225;47.804;12.116;2023-04-07T13:22:51;18.50;77.50
25280;DHT22;13225;47.804;12.116;2023-04-07T13:25:16;17.60;80.00
25280;DHT22;13225;47.804;12.116;2023-04-07T13:27:42;17.40;81.90
25280;DHT22;13225;47.804;12.116;2023-04-07T13:30:08;16.90;83.20
25280;DHT22;13225;47.804;12.116;2023-04-07T13:32:33;16.30;82.90
25280;DHT22;13225;47.804;12.116;2023-04-07T13:35:02;15.80;83.90
25280;DHT22;13225;47.804;12.116;2023-04-07T13:37:28;15.40;85.30
25280;DHT22;13225;47.804;12.116;2023-04-07T13:39:54;15.20;87.00
25280;DHT22;13225;47.804;12.116;2023-04-07T13:42:19;14.80;89.90
25280;DHT22;13225;47.804;12.116;2023-04-07T13:44:45;14.50;90.70
25280;DHT22;13225;47.804;12.116;2023-04-07T13:47:12;14.40;90.30
25280;DHT22;13225;47.804;12.116;2023-04-07T13:49:46;14.50;90.20
25280;DHT22;13225;47.804;12.116;2023-04-07T13:52:12;14.40;90.20
25280;DHT22;13225;47.804;12.116;2023-04-07T13:54:38;14.30;90.50
25280;DHT22;13225;47.804;12.116;2023-04-07T13:57:04;14.10;91.10
25280;DHT22;13225;47.804;12.116;2023-04-07T13:59:30;14.00;91.70
25280;DHT22;13225;47.804;12.116;2023-04-07T14:01:55;13.90;91.70
25280;DHT22;13225;47.804;12.116;2023-04-07T14:04:21;13.70;91.70
25280;DHT22;13225;47.804;12.116;2023-04-07T14:06:47;13.80;92.30
25280;DHT22;13225;47.804;12.116;2023-04-07T14:09:12;13.90;92.20
25280;DHT22;13225;47.804;12.116;2023-04-07T14:11:38;13.80;91.80
25280;DHT22;13225;47.804;12.116;2023-04-07T14:14:04;13.60;91.70
25280;DHT22;13225;47.804;12.116;2023-04-07T14:16:30;13.50;92.70
25280;DHT22;13225;47.804;12.116;2023-04-07T14:18:56;13.60;92.80
25280;DHT22;13225;47.804;12.116;2023-04-07T14:21:22;13.50;92.60
25280;DHT22;13225;47.804;12.116;2023-04-07T14:23:48;13.40;93.30
25280;DHT22;13225;47.804;12.116;2023-04-07T14:26:14;13.30;93.20
25280;DHT22;13225;47.804;12.116;2023-04-07T14:28:40;13.30;93.80
25280;DHT22;13225;47.804;12.116;2023-04-07T14:31:06;13.20;93.80
25280;DHT22;13225;47.804;12.116;2023-04-07T14:33:36;13.10;94.20
25280;DHT22;13225;47.804;12.116;2023-04-07T14:36:01;13.00;94.40
25280;DHT22;13225;47.804;12.116;2023-04-07T14:38:27;13.00;94.90
25280;DHT22;13225;47.804;12.116;2023-04-07T14:40:52;12.90;95.10
25280;DHT22;13225;47.804;12.116;2023-04-07T14:43:18;12.80;95.90
25280;DHT22;13225;47.804;12.116;2023-04-07T14:45:44;12.70;95.90
25280;DHT22;13225;47.804;12.116;2023-04-07T14:48:09;12.80;96.20
25280;DHT22;13225;47.804;12.116;2023-04-07T14:50:36;12.80;96.30
25280;DHT22;13225;47.804;12.116;2023-04-07T14:53:01;12.70;96.40
25280;DHT22;13225;47.804;12.116;2023-04-07T14:55:30;12.70;96.40
25280;DHT22;13225;47.804;12.116;2023-04-07T14:57:55;12.70;96.30
25280;DHT22;13225;47.804;12.116;2023-04-07T15:00:21;12.70;96.50
25280;DHT22;13225;47.804;12.116;2023-04-07T15:02:47;12.60;96.80
25280;DHT22;13225;47.804;12.116;2023-04-07T15:05:13;12.60;97.00
25280;DHT22;13225;47.804;12.116;2023-04-07T15:07:38;12.50;97.30
25280;DHT22;13225;47.804;12.116;2023-04-07T15:10:04;12.50;97.50
25280;DHT22;13225;47.804;12.116;2023-04-07T15:12:30;12.50;97.40
25280;DHT22;13225;47.804;12.116;2023-04-07T15:14:57;12.50;97.90
25280;DHT22;13225;47.804;12.116;2023-04-07T15:17:23;12.50;98.20
25280;DHT22;13225;47.804;12.116;2023-04-07T15:19:48;12.50;98.20
25280;DHT22;13225;47.804;12.116;2023-04-07T15:22:14;12.50;97.80
25280;DHT22;13225;47.804;12.116;2023-04-07T15:24:40;12.40;97.70
25280;DHT22;13225;47.804;12.116;2023-04-07T15:27:05;12.40;97.80
25280;DHT22;13225;47.804;12.116;2023-04-07T15:29:31;12.30;97.80
25280;DHT22;13225;47.804;12.116;2023-04-07T15:31:56;12.30;97.80
25280;DHT22;13225;47.804;12.116;2023-04-07T15:34:22;12.20;98.40
25280;DHT22;13225;47.804;12.116;2023-04-07T15:36:48;12.10;99.90
25280;DHT22;13225;47.804;12.116;2023-04-07T15:39:13;12.20;99.90
25280;DHT22;13225;47.804;12.116;2023-04-07T15:41:39;12.20;99.90